createdAt,value
2018-09-24T00:02:17.535Z,101314.42
2018-09-24T00:04:45.380Z,101314.19
2018-09-24T00:07:13.205Z,101322.30
2018-09-24T00:09:40.979Z,101329.09
2018-09-24T00:12:08.812Z,101332.62
2018-09-24T00:14:36.561Z,101325.78
2018-09-24T00:17:04.408Z,101340.92
2018-09-24T00:19:32.251Z,101353.59
2018-09-24T00:22:00.049Z,101353.91
2018-09-24T00:24:27.929Z,101355.59
2018-09-24T00:26:55.789Z,101372.13
2018-09-24T00:29:23.587Z,101374.99
2018-09-24T00:31:51.322Z,101377.80
2018-09-24T00:34:19.196Z,101389.62
2018-09-24T00:36:47.000Z,101398.77
2018-09-24T00:39:14.839Z,101410.84
2018-09-24T00:41:42.597Z,101419.92
2018-09-24T00:44:10.422Z,101426.87
2018-09-24T00:46:38.238Z,101421.39
2018-09-24T00:49:06.083Z,101429.84
2018-09-24T00:51:33.933Z,101428.77
2018-09-24T00:54:01.840Z,101426.67
2018-09-24T00:56:29.753Z,101429.99
2018-09-24T00:58:57.548Z,101433.10
2018-09-24T01:01:25.314Z,101432.26
2018-09-24T01:03:53.144Z,101436.70
2018-09-24T01:06:20.961Z,101437.39
2018-09-24T01:08:48.775Z,101445.25
2018-09-24T01:11:16.604Z,101445.62
2018-09-24T01:13:44.388Z,101458.00
2018-09-24T01:16:12.220Z,101446.94
2018-09-24T01:18:40.000Z,101449.25
2018-09-24T01:21:07.837Z,101462.08
2018-09-24T01:23:35.791Z,101474.45
2018-09-24T01:26:03.779Z,101482.53
2018-09-24T01:28:31.631Z,101489.38
2018-09-24T01:30:59.423Z,101489.76
2018-09-24T01:33:27.267Z,101499.23
2018-09-24T01:35:55.016Z,101499.17
2018-09-24T01:38:22.848Z,101499.49
2018-09-24T01:40:50.680Z,101503.09
2018-09-24T01:43:18.488Z,101512.42
2018-09-24T01:45:46.368Z,101513.31
2018-09-24T01:48:14.187Z,101515.86
2018-09-24T01:50:41.972Z,101514.75
2018-09-24T01:53:09.807Z,101515.22
2018-09-24T01:55:37.629Z,101520.64
2018-09-24T01:58:05.379Z,101518.23
2018-09-24T02:00:33.175Z,101523.84
2018-09-24T02:03:00.968Z,101531.94
2018-09-24T02:05:28.754Z,101527.45
2018-09-24T02:07:56.572Z,101531.09
2018-09-24T02:10:25.505Z,101530.94
2018-09-24T02:12:55.171Z,101538.47
2018-09-24T02:15:27.671Z,101540.92
2018-09-24T02:17:55.562Z,101550.32
2018-09-24T02:20:23.360Z,101552.59
2018-09-24T02:22:51.243Z,101556.76
2018-09-24T02:25:19.060Z,101562.37
2018-09-24T02:27:46.801Z,101564.38
2018-09-24T02:30:16.581Z,101564.01
2018-09-24T02:32:44.368Z,101570.42
2018-09-24T02:35:12.419Z,101571.86
2018-09-24T02:37:40.197Z,101583.63
2018-09-24T02:40:16.355Z,101590.12
2018-09-24T02:42:44.367Z,101587.59
2018-09-24T02:45:12.796Z,101599.13
2018-09-24T02:47:40.564Z,101584.67
2018-09-24T02:50:08.420Z,101597.68
2018-09-24T02:52:36.278Z,101609.41
2018-09-24T02:55:12.585Z,101610.32
2018-09-24T02:57:40.666Z,101622.05
2018-09-24T03:00:08.601Z,101623.53
2018-09-24T03:02:36.663Z,101622.66
2018-09-24T03:05:04.540Z,101638.55
2018-09-24T03:07:32.283Z,101641.42
2018-09-24T03:10:00.143Z,101646.19
2018-09-24T03:12:27.944Z,101646.97
2018-09-24T03:14:55.772Z,101656.14
2018-09-24T03:17:23.599Z,101655.37
2018-09-24T03:19:51.355Z,101651.22
2018-09-24T03:22:22.417Z,101653.48
2018-09-24T03:24:50.683Z,101651.09
2018-09-24T03:27:18.816Z,101656.77
2018-09-24T03:29:46.563Z,101653.48
2018-09-24T03:32:14.416Z,101664.41
2018-09-24T03:34:42.204Z,101663.80
2018-09-24T03:37:09.969Z,101674.22
2018-09-24T03:39:37.767Z,101671.63
2018-09-24T03:42:05.710Z,101671.02
2018-09-24T03:44:33.488Z,101669.13
2018-09-24T03:47:01.355Z,101673.09
2018-09-24T03:49:29.216Z,101675.94
2018-09-24T03:51:57.018Z,101673.11
2018-09-24T03:54:24.804Z,101676.12
2018-09-24T03:56:52.843Z,101680.92
2018-09-24T03:59:20.672Z,101688.59
2018-09-24T04:01:48.502Z,101692.89
2018-09-24T04:04:22.152Z,101698.42
2018-09-24T04:06:55.703Z,101694.77
2018-09-24T04:09:29.318Z,101701.36
2018-09-24T04:12:02.808Z,101701.52
2018-09-24T04:14:36.367Z,101710.55
2018-09-24T04:17:09.879Z,101724.33
2018-09-24T04:19:43.289Z,101720.39
2018-09-24T04:22:16.927Z,101725.69
2018-09-24T04:24:50.544Z,101735.59
2018-09-24T04:27:24.140Z,101741.58
2018-09-24T04:29:57.775Z,101740.60
2018-09-24T04:32:31.371Z,101740.74
2018-09-24T04:35:04.961Z,101743.45
2018-09-24T04:37:38.655Z,101746.48
2018-09-24T04:40:12.217Z,101745.76
2018-09-24T04:42:45.762Z,101747.09
2018-09-24T04:45:19.329Z,101751.73
2018-09-24T04:47:52.751Z,101753.98
2018-09-24T04:50:26.374Z,101761.32
2018-09-24T04:52:59.992Z,101763.97
2018-09-24T04:55:33.466Z,101773.98
2018-09-24T04:58:07.059Z,101775.79
2018-09-24T05:00:40.660Z,101786.17
2018-09-24T05:03:14.826Z,101789.72
2018-09-24T05:05:48.417Z,101783.95
2018-09-24T05:08:22.161Z,101791.27
2018-09-24T05:10:55.596Z,101794.12
2018-09-24T05:13:29.071Z,101792.55
2018-09-24T05:16:02.756Z,101785.89
2018-09-24T05:18:36.197Z,101789.34
2018-09-24T05:21:10.096Z,101794.83
2018-09-24T05:23:43.564Z,101790.48
2018-09-24T05:26:17.063Z,101797.08
2018-09-24T05:28:50.754Z,101804.30
2018-09-24T05:31:24.444Z,101802.90
2018-09-24T05:33:57.881Z,101806.13
2018-09-24T05:36:31.284Z,101812.30
2018-09-24T05:39:04.923Z,101824.40
2018-09-24T05:41:38.652Z,101835.14
2018-09-24T05:44:12.199Z,101840.53
2018-09-24T05:46:45.798Z,101838.97
2018-09-24T05:49:19.312Z,101846.91
2018-09-24T05:51:52.846Z,101851.00
2018-09-24T05:54:26.392Z,101850.91
2018-09-24T05:56:59.928Z,101859.50
2018-09-24T05:59:33.577Z,101870.72
2018-09-24T06:02:07.172Z,101876.14
2018-09-24T06:04:40.821Z,101892.94
2018-09-24T06:07:14.502Z,101883.91
2018-09-24T06:09:48.064Z,101882.25
2018-09-24T06:12:21.465Z,101888.63
2018-09-24T06:14:54.914Z,101898.70
2018-09-24T06:17:28.408Z,101903.12
2018-09-24T06:20:01.780Z,101908.77
2018-09-24T06:22:35.227Z,101906.12
2018-09-24T06:25:08.804Z,101920.10
2018-09-24T06:27:42.363Z,101916.53
2018-09-24T06:30:15.928Z,101928.90
2018-09-24T06:32:49.473Z,101930.06
2018-09-24T06:35:23.037Z,101938.22
2018-09-24T06:37:56.520Z,101938.19
2018-09-24T06:40:30.383Z,101945.95
2018-09-24T06:43:07.691Z,101945.64
2018-09-24T06:45:41.248Z,101951.25
2018-09-24T06:48:14.885Z,101962.97
2018-09-24T06:50:48.373Z,101971.22
2018-09-24T06:53:21.848Z,101966.52
2018-09-24T06:55:55.527Z,101971.58
2018-09-24T06:58:29.100Z,101970.02
2018-09-24T07:01:02.719Z,101984.89
2018-09-24T07:03:36.288Z,101979.91
2018-09-24T07:06:09.789Z,101989.07
2018-09-24T07:08:43.512Z,101991.89
2018-09-24T07:11:16.897Z,101996.68
2018-09-24T07:13:50.251Z,101988.06
2018-09-24T07:16:23.755Z,102000.27
2018-09-24T07:18:57.271Z,102005.17
2018-09-24T07:21:30.813Z,102017.93
2018-09-24T07:24:04.165Z,102018.78
2018-09-24T07:26:37.696Z,102023.04
2018-09-24T07:29:11.392Z,102020.79
2018-09-24T07:31:44.863Z,102027.30
2018-09-24T07:34:18.543Z,102024.72
2018-09-24T07:36:52.183Z,102026.30
2018-09-24T07:39:25.839Z,102029.20
2018-09-24T07:41:59.431Z,102046.07
2018-09-24T07:44:32.971Z,102042.88
2018-09-24T07:47:06.500Z,102048.22
2018-09-24T07:49:40.071Z,102051.02
2018-09-24T07:52:13.577Z,102049.45
2018-09-24T07:54:46.980Z,102060.19
2018-09-24T07:57:20.519Z,102063.11
2018-09-24T07:59:54.112Z,102064.16
2018-09-24T08:02:27.704Z,102063.89
2018-09-24T08:05:01.280Z,102070.03
2018-09-24T08:07:34.894Z,102074.52
2018-09-24T08:10:08.395Z,102071.37
2018-09-24T08:12:41.971Z,102074.94
2018-09-24T08:15:15.415Z,102081.73
2018-09-24T08:17:49.039Z,102080.86
2018-09-24T08:20:22.536Z,102083.27
2018-09-24T08:22:55.891Z,102082.96
2018-09-24T08:25:29.287Z,102086.68
2018-09-24T08:28:02.853Z,102082.32
2018-09-24T08:30:36.279Z,102085.16
2018-09-24T08:33:09.779Z,102077.30
2018-09-24T08:35:43.400Z,102081.72
2018-09-24T08:38:16.906Z,102091.01
2018-09-24T08:40:50.136Z,102093.34
2018-09-24T08:43:23.624Z,102096.19
2018-09-24T08:45:57.351Z,102096.62
2018-09-24T08:48:30.735Z,102100.52
2018-09-24T08:51:04.372Z,102098.09
2018-09-24T08:53:37.904Z,102098.83
2018-09-24T08:56:11.332Z,102099.89
2018-09-24T08:58:44.932Z,102104.01
2018-09-24T09:01:18.380Z,102117.73
2018-09-24T09:03:51.948Z,102121.02
2018-09-24T09:06:25.457Z,102117.83
2018-09-24T09:08:59.090Z,102121.52
2018-09-24T09:11:32.749Z,102118.45
2018-09-24T09:14:06.339Z,102121.84
2018-09-24T09:16:39.816Z,102127.33
2018-09-24T09:19:13.348Z,102131.23
2018-09-24T09:21:46.836Z,102137.84
2018-09-24T09:24:20.288Z,102137.39
2018-09-24T09:26:53.705Z,102149.77
2018-09-24T09:29:27.093Z,102152.50
2018-09-24T09:32:00.525Z,102148.83
2018-09-24T09:34:34.055Z,102150.05
2018-09-24T09:37:07.588Z,102149.39
2018-09-24T09:39:41.048Z,102141.09
2018-09-24T09:42:14.763Z,102139.61
2018-09-24T09:44:48.455Z,102143.25
2018-09-24T09:47:21.932Z,102148.94
2018-09-24T09:49:55.531Z,102141.79
2018-09-24T09:52:29.184Z,102139.09
2018-09-24T09:55:02.784Z,102137.30
2018-09-24T09:57:36.248Z,102131.91
2018-09-24T10:00:09.740Z,102131.27
2018-09-24T10:02:43.785Z,102131.90
2018-09-24T10:05:17.200Z,102137.25
2018-09-24T10:07:50.784Z,102131.47
2018-09-24T10:10:24.364Z,102134.41
2018-09-24T10:12:57.960Z,102129.80
2018-09-24T10:15:31.456Z,102126.14
2018-09-24T10:18:05.092Z,102133.37
2018-09-24T10:20:38.380Z,102138.41
2018-09-24T10:23:11.908Z,102144.05
2018-09-24T10:25:45.460Z,102143.98
2018-09-24T10:28:18.971Z,102140.27
2018-09-24T10:30:52.492Z,102148.14
2018-09-24T10:33:26.068Z,102140.53
2018-09-24T10:35:59.711Z,102145.97
2018-09-24T10:38:33.292Z,102145.66
2018-09-24T10:41:06.855Z,102131.69
2018-09-24T10:43:40.251Z,102139.03
2018-09-24T10:46:13.676Z,102133.91
2018-09-24T10:48:47.179Z,102140.49
2018-09-24T10:51:20.871Z,102137.77
2018-09-24T10:53:54.419Z,102129.18
2018-09-24T10:56:28.089Z,102135.77
2018-09-24T10:59:01.659Z,102136.53
2018-09-24T11:01:35.280Z,102133.79
2018-09-24T11:04:08.656Z,102127.66
2018-09-24T11:06:42.083Z,102128.18
2018-09-24T11:09:15.680Z,102126.78
2018-09-24T11:11:49.135Z,102118.70
2018-09-24T11:14:22.606Z,102113.61
2018-09-24T11:16:56.323Z,102115.05
2018-09-24T11:19:29.722Z,102103.67
2018-09-24T11:22:03.319Z,102108.67
2018-09-24T11:24:36.665Z,102097.75
2018-09-24T11:27:10.016Z,102106.44
2018-09-24T11:29:43.595Z,102104.32
2018-09-24T11:32:16.947Z,102105.52
2018-09-24T11:34:50.583Z,102101.51
2018-09-24T11:37:23.994Z,102104.78
2018-09-24T11:39:57.609Z,102103.02
2018-09-24T11:42:31.151Z,102107.72
2018-09-24T11:45:04.471Z,102113.73
2018-09-24T11:47:38.215Z,102113.30
2018-09-24T11:50:11.903Z,102106.78
2018-09-24T11:52:52.372Z,102113.23
2018-09-24T11:55:26.047Z,102112.95
2018-09-24T11:57:59.695Z,102106.58
2018-09-24T12:00:33.299Z,102104.55
2018-09-24T12:03:06.852Z,102097.44
2018-09-24T12:05:40.472Z,102092.98
2018-09-24T12:08:13.962Z,102091.16
2018-09-24T12:10:47.400Z,102096.08
2018-09-24T12:13:21.001Z,102092.88
2018-09-24T12:15:54.701Z,102095.88
2018-09-24T12:18:28.340Z,102085.78
2018-09-24T12:21:01.852Z,102089.16
2018-09-24T12:23:35.243Z,102098.19
2018-09-24T12:26:08.795Z,102095.92
2018-09-24T12:28:42.287Z,102086.31
2018-09-24T12:31:16.352Z,102079.30
2018-09-24T12:33:49.833Z,102079.26
2018-09-24T12:36:23.304Z,102085.41
2018-09-24T12:38:57.011Z,102080.70
2018-09-24T12:41:30.514Z,102079.57
2018-09-24T12:44:03.986Z,102072.92
2018-09-24T12:46:37.576Z,102070.56
2018-09-24T12:49:11.145Z,102076.19
2018-09-24T12:51:44.540Z,102075.14
2018-09-24T12:54:18.011Z,102066.93
2018-09-24T12:56:51.659Z,102073.44
2018-09-24T12:59:25.188Z,102076.16
2018-09-24T13:01:58.799Z,102081.67
2018-09-24T13:04:32.331Z,102073.06
2018-09-24T13:07:05.886Z,102072.41
2018-09-24T13:09:39.455Z,102078.53
2018-09-24T13:12:13.088Z,102080.36
2018-09-24T13:14:46.712Z,102067.77
2018-09-24T13:17:20.298Z,102078.47
2018-09-24T13:19:53.864Z,102078.50
2018-09-24T13:22:27.384Z,102068.59
2018-09-24T13:25:01.080Z,102063.81
2018-09-24T13:27:34.696Z,102075.73
2018-09-24T13:30:08.328Z,102075.22
2018-09-24T13:32:41.893Z,102075.45
2018-09-24T13:35:15.517Z,102057.31
2018-09-24T13:37:48.976Z,102061.49
2018-09-24T13:40:23.735Z,102055.31
2018-09-24T13:42:57.316Z,102056.52
2018-09-24T13:45:30.963Z,102054.03
2018-09-24T13:48:04.521Z,102057.93
2018-09-24T13:50:38.138Z,102062.51
2018-09-24T13:53:11.839Z,102055.67
2018-09-24T13:55:45.420Z,102055.03
2018-09-24T13:58:19.033Z,102058.94
2018-09-24T14:00:52.584Z,102052.07
2018-09-24T14:03:26.033Z,102037.87
2018-09-24T14:05:59.507Z,102045.62
2018-09-24T14:08:33.064Z,102045.29
2018-09-24T14:11:06.604Z,102044.75
2018-09-24T14:13:40.271Z,102046.92
2018-09-24T14:16:13.873Z,102034.48
2018-09-24T14:18:47.396Z,102038.88
2018-09-24T14:21:20.990Z,102037.91
2018-09-24T14:23:54.584Z,102045.29
2018-09-24T14:26:27.948Z,102045.88
2018-09-24T14:29:01.482Z,102036.41
2018-09-24T14:31:35.101Z,102042.64
2018-09-24T14:34:08.708Z,102054.38
2018-09-24T14:36:42.263Z,102050.99
2018-09-24T14:39:15.789Z,102053.70
2018-09-24T14:41:49.393Z,102051.11
2018-09-24T14:44:22.893Z,102046.38
2018-09-24T14:46:56.465Z,102055.09
2018-09-24T14:49:30.063Z,102057.39
2018-09-24T14:52:03.467Z,102054.55
2018-09-24T14:54:37.390Z,102049.88
2018-09-24T14:57:10.988Z,102049.45
2018-09-24T14:59:44.677Z,102049.77
2018-09-24T15:02:18.296Z,102054.98
2018-09-24T15:04:51.848Z,102057.05
2018-09-24T15:07:25.335Z,102060.13
2018-09-24T15:09:58.868Z,102053.30
2018-09-24T15:12:32.374Z,102057.52
2018-09-24T15:15:05.911Z,102052.98
2018-09-24T15:17:39.449Z,102044.15
2018-09-24T15:20:13.136Z,102049.80
2018-09-24T15:22:46.826Z,102052.38
2018-09-24T15:25:21.175Z,102053.75
2018-09-24T15:27:54.675Z,102057.14
2018-09-24T15:30:28.495Z,102056.77
2018-09-24T15:33:02.047Z,102056.64
2018-09-24T15:35:35.668Z,102059.33
2018-09-24T15:38:09.272Z,102058.56
2018-09-24T15:40:42.878Z,102049.98
2018-09-24T15:43:16.463Z,102045.84
2018-09-24T15:45:50.003Z,102049.65
2018-09-24T15:48:23.655Z,102060.66
2018-09-24T15:50:57.283Z,102052.91
2018-09-24T15:53:30.896Z,102054.52
2018-09-24T15:56:04.529Z,102053.02
2018-09-24T15:58:38.095Z,102059.19
2018-09-24T16:01:12.740Z,102054.51
2018-09-24T16:03:46.376Z,102057.17
2018-09-24T16:06:19.840Z,102056.84
2018-09-24T16:08:53.244Z,102055.78
2018-09-24T16:11:26.761Z,102059.80
2018-09-24T16:14:00.338Z,102063.25
2018-09-24T16:16:33.998Z,102069.12
2018-09-24T16:19:07.709Z,102069.18
2018-09-24T16:25:09.217Z,102071.40
2018-09-24T16:27:42.841Z,102072.98
2018-09-24T16:30:16.309Z,102080.77
2018-09-24T16:32:49.864Z,102077.52
2018-09-24T16:35:23.412Z,102080.06
2018-09-24T16:37:57.028Z,102085.80
2018-09-24T16:40:35.520Z,102074.76
2018-09-24T16:43:11.225Z,102077.61
2018-09-24T17:15:56.852Z,102124.94
2018-09-24T17:18:30.424Z,102132.42
2018-09-24T17:21:03.922Z,102133.05
2018-09-24T17:23:37.436Z,102136.13
2018-09-24T17:26:10.913Z,102136.76
2018-09-24T17:28:44.495Z,102139.33
2018-09-24T17:31:19.745Z,102145.94
2018-09-24T17:33:53.156Z,102140.20
2018-09-24T17:36:28.128Z,102139.01
2018-09-24T17:39:09.064Z,102139.83
2018-09-24T17:41:42.703Z,102146.92
2018-09-24T17:44:16.309Z,102149.92
2018-09-24T17:46:49.912Z,102164.14
2018-09-24T17:49:23.395Z,102162.67
2018-09-24T17:51:57.102Z,102172.27
2018-09-24T17:54:30.687Z,102175.25
2018-09-24T17:57:04.068Z,102183.20
2018-09-24T17:59:37.613Z,102187.95
2018-09-24T18:02:11.232Z,102201.58
2018-09-24T18:04:44.766Z,102203.80
2018-09-24T18:07:18.446Z,102207.17
2018-09-24T18:09:52.164Z,102218.16
2018-09-24T18:12:25.668Z,102222.19
2018-09-24T18:14:59.345Z,102227.89
2018-09-24T18:17:33.043Z,102243.63
2018-09-24T18:20:06.567Z,102238.88
2018-09-24T18:22:40.091Z,102244.98
2018-09-24T18:25:13.559Z,102242.23
2018-09-24T18:27:47.134Z,102244.03
2018-09-24T18:30:20.693Z,102252.58
2018-09-24T18:32:54.234Z,102251.82
2018-09-24T18:35:27.814Z,102253.17
2018-09-24T18:38:01.480Z,102260.40
2018-09-24T18:40:42.358Z,102262.25
2018-09-24T18:43:16.015Z,102265.20
2018-09-24T18:45:49.460Z,102267.69
2018-09-24T18:48:23.344Z,102272.98
2018-09-24T18:50:56.836Z,102274.34
2018-09-24T18:53:30.324Z,102275.69
2018-09-24T18:56:03.830Z,102271.86
2018-09-24T18:58:37.336Z,102266.00
2018-09-24T19:01:11.073Z,102277.36
2018-09-24T19:03:44.638Z,102278.17
2018-09-24T19:06:18.471Z,102279.22
2018-09-24T19:08:52.125Z,102280.41
2018-09-24T19:11:27.958Z,102284.24
2018-09-24T19:13:58.999Z,102294.12
2018-09-24T19:16:32.538Z,102294.59
2018-09-24T19:19:07.901Z,102302.60
2018-09-24T19:21:41.495Z,102306.45
2018-09-24T19:24:15.197Z,102311.15
2018-09-24T19:26:49.305Z,102317.77
2018-09-24T19:29:22.856Z,102324.23
2018-09-24T19:31:56.445Z,102323.78
2018-09-24T19:34:29.983Z,102326.30
2018-09-24T19:37:03.809Z,102334.52
2018-09-24T19:39:37.436Z,102331.61
2018-09-24T19:42:11.297Z,102332.60
2018-09-24T19:44:44.755Z,102336.98
2018-09-24T19:47:18.331Z,102337.23
2018-09-24T19:49:51.817Z,102339.45
2018-09-24T19:52:25.467Z,102335.14
2018-09-24T19:54:59.080Z,102348.30
2018-09-24T19:57:32.688Z,102345.19
2018-09-24T20:00:06.220Z,102357.50
2018-09-24T20:02:39.828Z,102347.72
2018-09-24T20:05:13.315Z,102357.28
2018-09-24T20:07:46.853Z,102358.42
2018-09-24T20:10:22.921Z,102362.00
2018-09-24T20:12:58.050Z,102359.02
2018-09-24T20:15:32.276Z,102360.74
2018-09-24T20:18:05.979Z,102365.01
2018-09-24T20:20:41.543Z,102375.13
2018-09-24T20:23:17.658Z,102378.03
2018-09-24T20:25:51.562Z,102378.23
2018-09-24T20:28:25.192Z,102378.55
2018-09-24T20:30:59.223Z,102378.34
2018-09-24T20:33:33.055Z,102381.18
2018-09-24T20:36:06.680Z,102377.02
2018-09-24T20:38:40.464Z,102382.37
2018-09-24T20:41:13.912Z,102378.86
2018-09-24T20:43:47.410Z,102372.77
2018-09-24T20:46:20.871Z,102371.84
2018-09-24T20:48:54.472Z,102372.14
2018-09-24T20:51:28.124Z,102376.13
2018-09-24T20:54:01.752Z,102377.22
2018-09-24T20:56:35.246Z,102383.39
2018-09-24T20:59:08.836Z,102380.66
2018-09-24T21:01:42.364Z,102382.73
2018-09-24T21:04:15.927Z,102390.09
2018-09-24T21:06:49.439Z,102391.53
2018-09-24T21:09:22.911Z,102392.87
2018-09-24T21:11:56.465Z,102397.92
2018-09-24T21:14:30.024Z,102397.00
2018-09-24T21:17:03.605Z,102398.55
2018-09-24T21:19:37.163Z,102401.16
2018-09-24T21:22:10.720Z,102397.00
2018-09-24T21:24:44.392Z,102398.28
2018-09-24T21:27:18.071Z,102401.50
2018-09-24T21:30:01.270Z,102405.14
2018-09-24T21:32:35.103Z,102410.47
2018-09-24T21:35:08.703Z,102412.10
2018-09-24T21:37:42.632Z,102413.00
2018-09-24T21:40:16.075Z,102419.53
2018-09-24T21:42:49.720Z,102424.66
2018-09-24T21:45:23.292Z,102424.41
2018-09-24T21:47:59.568Z,102425.06
2018-09-24T21:50:33.161Z,102434.12
2018-09-24T21:53:06.776Z,102433.98
2018-09-24T21:55:40.228Z,102430.20
2018-09-24T21:58:15.793Z,102434.76
2018-09-24T22:00:49.846Z,102435.48
2018-09-24T22:03:23.414Z,102446.98
2018-09-24T22:05:57.006Z,102448.29
2018-09-24T22:08:30.428Z,102447.97
2018-09-24T22:11:08.569Z,102456.55
2018-09-24T22:13:47.998Z,102449.22
2018-09-24T22:16:21.508Z,102453.55
2018-09-24T22:18:55.315Z,102456.63
2018-09-24T22:21:28.884Z,102463.10
2018-09-24T22:24:02.484Z,102458.70
2018-09-24T22:26:35.877Z,102463.50
2018-09-24T22:29:09.436Z,102467.22
2018-09-24T22:31:42.844Z,102461.10
2018-09-24T22:34:16.521Z,102464.59
2018-09-24T22:36:49.940Z,102466.95
2018-09-24T22:39:23.492Z,102471.70
2018-09-24T22:41:56.959Z,102471.38
2018-09-24T22:44:30.524Z,102470.06
2018-09-24T22:47:04.005Z,102473.12
2018-09-24T22:49:37.459Z,102473.30
2018-09-24T22:52:10.995Z,102475.38
2018-09-24T22:54:44.545Z,102485.81
2018-09-24T22:57:18.063Z,102486.48
2018-09-24T22:59:51.756Z,102480.41
2018-09-24T23:02:25.467Z,102481.06
2018-09-24T23:04:58.917Z,102485.16
2018-09-24T23:07:32.413Z,102484.34
2018-09-24T23:10:05.864Z,102486.41
2018-09-24T23:12:39.427Z,102484.23
2018-09-24T23:15:13.144Z,102478.92
2018-09-24T23:17:46.748Z,102483.02
2018-09-24T23:20:20.295Z,102477.08
2018-09-24T23:22:53.876Z,102479.44
2018-09-24T23:25:27.392Z,102477.92
2018-09-24T23:28:00.759Z,102488.00
2018-09-24T23:30:34.112Z,102489.20
2018-09-24T23:33:07.717Z,102491.75
2018-09-24T23:35:41.257Z,102491.45
2018-09-24T23:38:15.884Z,102496.20
2018-09-24T23:40:49.409Z,102491.78
2018-09-24T23:43:23.032Z,102494.34
2018-09-24T23:45:56.661Z,102494.67
2018-09-24T23:48:30.152Z,102503.86
2018-09-24T23:51:03.768Z,102505.91
2018-09-24T23:53:37.419Z,102517.17
2018-09-24T23:56:10.804Z,102519.03
2018-09-24T23:58:44.311Z,102519.55
